createdAt,value
2023-02-14T00:02:14.115Z,87.78
2023-02-14T00:04:44.508Z,87.91
2023-02-14T00:07:12.257Z,88.41
2023-02-14T00:09:39.178Z,88.98
2023-02-14T00:12:07.792Z,89.70
2023-02-14T00:14:58.520Z,89.14
2023-02-14T00:17:25.691Z,87.98
2023-02-14T00:19:52.966Z,87.46
2023-02-14T00:22:22.976Z,86.98
2023-02-14T00:24:49.996Z,86.68
2023-02-14T00:27:16.978Z,86.76
2023-02-14T00:29:43.884Z,86.87
2023-02-14T00:32:10.823Z,87.60
2023-02-14T00:34:38.412Z,87.70
2023-02-14T00:37:05.483Z,89.42
2023-02-14T00:39:32.556Z,89.59
2023-02-14T00:41:59.392Z,89.17
2023-02-14T00:44:26.440Z,88.72
2023-02-14T00:46:53.437Z,89.21
2023-02-14T00:49:20.346Z,89.63
2023-02-14T00:51:47.311Z,89.38
2023-02-14T00:54:14.235Z,88.94
2023-02-14T00:56:44.417Z,88.34
2023-02-14T00:59:11.292Z,88.63
2023-02-14T01:01:38.331Z,90.13
2023-02-14T01:04:05.808Z,90.34
2023-02-14T01:06:32.624Z,91.17
2023-02-14T01:08:59.683Z,90.71
2023-02-14T01:11:30.163Z,90.76
2023-02-14T01:13:58.324Z,90.73
2023-02-14T01:16:26.336Z,90.64
2023-02-14T01:18:53.415Z,90.02
2023-02-14T01:21:21.530Z,89.79
2023-02-14T01:23:49.843Z,89.69
2023-02-14T01:26:17.426Z,89.77
2023-02-14T01:28:44.952Z,89.96
2023-02-14T01:31:13.849Z,89.76
2023-02-14T01:33:41.636Z,89.85
2023-02-14T01:36:17.536Z,89.59
2023-02-14T01:38:44.441Z,89.98
2023-02-14T01:41:11.557Z,91.25
2023-02-14T01:43:41.477Z,90.83
2023-02-14T01:46:09.547Z,90.31
2023-02-14T01:48:36.753Z,91.47
2023-02-14T01:51:03.683Z,92.21
2023-02-14T01:53:30.692Z,92.02
2023-02-14T01:56:03.373Z,92.51
2023-02-14T01:58:35.145Z,92.16
2023-02-14T02:01:03.152Z,91.41
2023-02-14T02:03:33.482Z,90.96
2023-02-14T02:06:03.614Z,90.49
2023-02-14T02:08:31.161Z,90.18
2023-02-14T02:10:58.955Z,90.13
2023-02-14T02:13:28.984Z,90.10
2023-02-14T02:15:57.539Z,90.33
2023-02-14T02:18:33.080Z,90.26
2023-02-14T02:21:02.989Z,90.40
2023-02-14T02:23:30.394Z,90.88
2023-02-14T02:26:09.580Z,90.99
2023-02-14T02:28:39.594Z,91.05
2023-02-14T02:31:09.596Z,91.30
2023-02-14T02:33:39.628Z,91.09
2023-02-14T02:36:09.524Z,91.04
2023-02-14T02:38:39.541Z,90.82
2023-02-14T02:41:09.527Z,90.86
2023-02-14T02:43:43.513Z,90.58
2023-02-14T02:46:20.286Z,90.63
2023-02-14T02:48:52.743Z,90.90
2023-02-14T02:51:27.833Z,91.65
2023-02-14T02:54:00.757Z,91.15
2023-02-14T02:56:33.972Z,90.91
2023-02-14T02:59:05.218Z,90.46
2023-02-14T03:01:35.687Z,91.24
2023-02-14T03:04:08.439Z,91.48
2023-02-14T03:06:35.370Z,91.06
2023-02-14T03:09:05.392Z,90.70
2023-02-14T03:11:32.310Z,90.95
2023-02-14T03:14:02.126Z,92.72
2023-02-14T03:16:35.475Z,93.82
2023-02-14T03:19:05.603Z,93.57
2023-02-14T03:21:32.904Z,93.48
2023-02-14T03:24:02.744Z,93.44
2023-02-14T03:26:32.689Z,93.18
2023-02-14T03:29:06.427Z,92.83
2023-02-14T03:31:36.915Z,92.41
2023-02-14T03:34:07.104Z,92.28
2023-02-14T03:36:35.302Z,92.46
2023-02-14T03:39:05.188Z,93.40
2023-02-14T03:41:36.115Z,93.67
2023-02-14T03:44:05.564Z,93.75
2023-02-14T03:46:36.349Z,93.66
2023-02-14T03:49:05.795Z,92.81
2023-02-14T03:51:34.734Z,92.18
2023-02-14T03:54:02.905Z,92.17
2023-02-14T03:56:31.306Z,92.00
2023-02-14T03:59:01.589Z,91.55
2023-02-14T04:01:31.970Z,91.42
2023-02-14T04:04:00.757Z,91.74
2023-02-14T04:06:27.940Z,92.26
2023-02-14T04:08:54.965Z,93.87
2023-02-14T04:11:24.078Z,94.89
2023-02-14T04:13:51.359Z,94.70
2023-02-14T04:16:18.266Z,94.83
2023-02-14T04:18:48.582Z,94.66
2023-02-14T04:21:15.491Z,94.88
2023-02-14T04:23:42.500Z,94.42
2023-02-14T04:26:09.572Z,94.01
2023-02-14T04:28:36.571Z,93.83
2023-02-14T04:31:07.446Z,94.15
2023-02-14T04:33:34.404Z,94.48
2023-02-14T04:36:01.729Z,94.11
2023-02-14T04:38:28.874Z,93.70
2023-02-14T04:40:55.960Z,93.04
2023-02-14T04:43:24.969Z,94.01
2023-02-14T04:45:51.932Z,95.17
2023-02-14T04:48:18.850Z,94.69
2023-02-14T04:50:45.712Z,94.06
2023-02-14T04:53:12.516Z,93.09
2023-02-14T04:55:39.349Z,93.28
2023-02-14T04:58:06.824Z,93.32
2023-02-14T05:00:33.784Z,93.72
2023-02-14T05:03:00.635Z,94.21
2023-02-14T05:05:27.612Z,93.89
2023-02-14T05:07:54.693Z,94.02
2023-02-14T05:10:27.155Z,94.16
2023-02-14T05:12:54.052Z,94.49
2023-02-14T05:15:20.948Z,94.08
2023-02-14T05:17:47.636Z,93.58
2023-02-14T05:20:14.429Z,93.48
2023-02-14T05:22:41.127Z,93.53
2023-02-14T05:25:08.221Z,94.03
2023-02-14T05:27:35.015Z,93.68
2023-02-14T05:30:02.376Z,94.44
2023-02-14T05:32:29.123Z,93.99
2023-02-14T05:34:55.798Z,93.70
2023-02-14T05:37:22.489Z,93.48
2023-02-14T05:39:49.288Z,93.37
2023-02-14T05:42:16.506Z,93.86
2023-02-14T05:44:43.341Z,94.51
2023-02-14T05:47:12.749Z,94.45
2023-02-14T05:49:39.724Z,94.12
2023-02-14T05:52:06.467Z,93.66
2023-02-14T05:54:33.492Z,93.83
2023-02-14T05:57:00.351Z,94.99
2023-02-14T05:59:27.058Z,95.11
2023-02-14T06:01:53.805Z,94.41
2023-02-14T06:04:20.592Z,94.01
2023-02-14T06:06:47.509Z,93.61
2023-02-14T06:09:14.280Z,94.20
2023-02-14T06:11:40.987Z,94.34
2023-02-14T06:14:08.074Z,94.91
2023-02-14T06:16:34.793Z,95.32
2023-02-14T06:19:01.727Z,95.42
2023-02-14T06:21:28.519Z,95.62
2023-02-14T06:23:55.537Z,94.87
2023-02-14T06:26:22.282Z,94.36
2023-02-14T06:28:53.183Z,94.16
2023-02-14T06:31:20.035Z,93.88
2023-02-14T06:33:46.896Z,93.82
2023-02-14T06:36:13.594Z,93.56
2023-02-14T06:38:41.566Z,93.51
2023-02-14T06:41:09.465Z,93.54
2023-02-14T06:43:37.638Z,93.44
2023-02-14T06:46:04.781Z,93.59
2023-02-14T06:48:31.622Z,93.20
2023-02-14T06:50:59.251Z,93.17
2023-02-14T06:53:26.457Z,93.27
2023-02-14T06:55:53.515Z,92.99
2023-02-14T06:58:20.296Z,93.04
2023-02-14T07:00:47.639Z,92.95
2023-02-14T07:03:14.682Z,93.16
2023-02-14T07:05:41.608Z,93.15
2023-02-14T07:08:08.473Z,92.82
2023-02-14T07:10:35.308Z,92.87
2023-02-14T07:13:02.364Z,92.97
2023-02-14T07:15:29.201Z,92.92
2023-02-14T07:17:55.993Z,92.98
2023-02-14T07:20:22.921Z,93.08
2023-02-14T07:22:50.029Z,93.28
2023-02-14T07:25:16.928Z,93.09
2023-02-14T07:27:46.982Z,92.78
2023-02-14T07:30:14.265Z,92.43
2023-02-14T07:32:41.667Z,92.25
2023-02-14T07:35:08.893Z,92.44
2023-02-14T07:37:36.436Z,92.78
2023-02-14T07:40:04.041Z,92.31
2023-02-14T07:42:34.711Z,91.90
2023-02-14T07:45:09.441Z,91.51
2023-02-14T07:47:48.242Z,90.90
2023-02-14T07:50:15.197Z,90.99
2023-02-14T07:52:42.140Z,90.52
2023-02-14T07:55:09.375Z,90.78
2023-02-14T07:57:36.312Z,91.54
2023-02-14T08:00:04.102Z,92.45
2023-02-14T08:02:31.010Z,92.54
2023-02-14T08:04:58.229Z,91.75
2023-02-14T08:07:25.308Z,91.40
2023-02-14T08:09:52.361Z,91.19
2023-02-14T08:12:22.337Z,90.31
2023-02-14T08:14:49.670Z,89.63
2023-02-14T08:17:17.010Z,88.55
2023-02-14T08:19:44.020Z,88.33
2023-02-14T08:22:10.967Z,88.16
2023-02-14T08:24:38.229Z,87.41
2023-02-14T08:27:05.673Z,87.78
2023-02-14T08:29:32.875Z,87.82
2023-02-14T08:32:00.849Z,87.50
2023-02-14T08:34:28.064Z,87.37
2023-02-14T08:36:55.146Z,86.71
2023-02-14T08:39:22.285Z,86.65
2023-02-14T08:41:49.413Z,86.50
2023-02-14T08:44:16.925Z,84.84
2023-02-14T08:46:44.064Z,84.13
2023-02-14T08:49:11.631Z,81.36
2023-02-14T08:51:39.167Z,80.25
2023-02-14T08:54:06.285Z,80.81
2023-02-14T08:56:33.957Z,81.43
2023-02-14T08:59:01.234Z,81.81
2023-02-14T09:01:29.527Z,82.16
2023-02-14T09:03:57.248Z,82.80
2023-02-14T09:06:24.904Z,83.24
2023-02-14T09:08:53.947Z,83.04
2023-02-14T09:11:22.595Z,82.64
2023-02-14T09:13:50.196Z,83.05
2023-02-14T09:16:18.848Z,82.63
2023-02-14T09:18:47.761Z,82.66
2023-02-14T09:21:16.516Z,81.77
2023-02-14T09:23:43.833Z,82.26
2023-02-14T09:26:11.565Z,82.17
2023-02-14T09:28:39.118Z,82.01
2023-02-14T09:31:09.295Z,82.05
2023-02-14T09:33:36.427Z,81.93
2023-02-14T09:36:06.505Z,81.15
2023-02-14T09:38:33.484Z,80.85
2023-02-14T09:41:05.613Z,80.75
2023-02-14T09:43:39.455Z,80.93
2023-02-14T09:46:09.761Z,81.03
2023-02-14T09:48:38.519Z,81.15
2023-02-14T09:51:07.611Z,81.35
2023-02-14T09:53:36.974Z,81.22
2023-02-14T09:56:07.612Z,81.57
2023-02-14T09:58:37.648Z,81.81
2023-02-14T10:01:10.662Z,82.07
2023-02-14T10:03:38.044Z,82.54
2023-02-14T10:06:08.268Z,82.41
2023-02-14T10:08:36.669Z,82.37
2023-02-14T10:11:09.404Z,82.47
2023-02-14T10:13:41.423Z,82.75
2023-02-14T10:16:13.087Z,82.62
2023-02-14T10:18:43.668Z,82.87
2023-02-14T10:21:16.525Z,83.92
2023-02-14T10:23:47.405Z,83.74
2023-02-14T10:26:18.460Z,83.70
2023-02-14T10:28:47.883Z,83.83
2023-02-14T10:31:18.376Z,83.13
2023-02-14T10:33:50.307Z,82.32
2023-02-14T10:36:20.689Z,81.98
2023-02-14T10:38:55.568Z,81.61
2023-02-14T10:41:26.025Z,81.00
2023-02-14T10:43:54.993Z,81.34
2023-02-14T10:46:22.636Z,80.87
2023-02-14T10:48:57.244Z,80.54
2023-02-14T10:51:33.875Z,80.87
2023-02-14T10:54:04.584Z,80.81
2023-02-14T10:56:34.996Z,81.50
2023-02-14T10:59:09.563Z,82.40
2023-02-14T11:01:36.822Z,82.06
2023-02-14T11:04:07.113Z,81.45
2023-02-14T11:06:35.052Z,81.12
2023-02-14T11:09:02.284Z,80.98
2023-02-14T11:11:34.208Z,80.61
2023-02-14T11:16:46.104Z,80.63
2023-02-14T11:19:16.360Z,78.98
2023-02-14T11:21:45.645Z,78.67
2023-02-14T11:24:15.811Z,78.46
2023-02-14T11:26:45.485Z,78.17
2023-02-14T11:29:14.531Z,77.77
2023-02-14T11:31:42.368Z,77.62
2023-02-14T11:34:12.490Z,77.30
2023-02-14T11:36:42.031Z,77.74
2023-02-14T11:39:12.804Z,77.39
2023-02-14T11:41:42.852Z,77.64
2023-02-14T11:44:14.972Z,77.73
2023-02-14T11:46:52.838Z,78.01
2023-02-14T11:49:24.686Z,78.37
2023-02-14T11:51:52.769Z,78.57
2023-02-14T11:54:23.013Z,78.38
2023-02-14T11:56:54.462Z,78.52
2023-02-14T11:59:29.415Z,78.52
2023-02-14T12:01:58.385Z,78.24
2023-02-14T12:04:32.790Z,79.03
2023-02-14T12:07:06.187Z,79.26
2023-02-14T12:09:33.546Z,79.44
2023-02-14T12:12:02.053Z,79.07
2023-02-14T12:14:30.294Z,78.89
2023-02-14T12:17:00.646Z,79.13
2023-02-14T12:19:38.078Z,79.05
2023-02-14T12:22:06.438Z,79.41
2023-02-14T12:24:38.772Z,79.05
2023-02-14T12:27:16.052Z,79.74
2023-02-14T12:29:47.577Z,79.23
2023-02-14T12:32:15.516Z,78.89
2023-02-14T12:34:42.759Z,78.50
2023-02-14T12:37:13.128Z,78.80
2023-02-14T12:39:43.489Z,78.16
2023-02-14T12:42:13.669Z,77.68
2023-02-14T12:44:44.057Z,77.13
2023-02-14T12:47:14.178Z,77.09
2023-02-14T12:49:44.694Z,76.83
2023-02-14T12:52:15.001Z,76.77
2023-02-14T12:54:42.686Z,78.08
2023-02-14T12:57:12.813Z,78.17
2023-02-14T12:59:43.213Z,77.32
2023-02-14T13:02:13.671Z,77.23
2023-02-14T13:04:43.979Z,78.24
2023-02-14T13:07:21.212Z,77.60
2023-02-14T13:09:56.115Z,77.41
2023-02-14T13:12:33.077Z,77.41
2023-02-14T13:15:03.312Z,76.65
2023-02-14T13:17:35.569Z,79.42
2023-02-14T13:20:07.256Z,78.01
2023-02-14T13:22:35.150Z,76.18
2023-02-14T13:25:05.543Z,75.94
2023-02-14T13:27:34.366Z,75.27
2023-02-14T13:30:04.025Z,74.71
2023-02-14T13:32:33.777Z,74.02
2023-02-14T13:35:01.733Z,74.18
2023-02-14T13:37:29.558Z,73.99
2023-02-14T13:39:59.680Z,74.79
2023-02-14T13:42:30.305Z,75.98
2023-02-14T13:44:57.445Z,76.12
2023-02-14T13:47:25.927Z,76.24
2023-02-14T13:49:56.047Z,74.46
2023-02-14T13:52:26.122Z,74.92
2023-02-14T13:55:00.447Z,74.51
2023-02-14T13:57:31.846Z,75.64
2023-02-14T14:00:02.032Z,74.03
2023-02-14T14:02:30.288Z,74.76
2023-02-14T14:04:57.801Z,74.20
2023-02-14T14:07:27.571Z,73.55
2023-02-14T14:09:56.050Z,73.00
2023-02-14T14:12:26.287Z,73.50
2023-02-14T14:14:56.493Z,74.71
2023-02-14T14:17:26.620Z,74.97
2023-02-14T14:19:54.367Z,74.54
2023-02-14T14:22:22.789Z,74.29
2023-02-14T14:24:52.676Z,73.12
2023-02-14T14:27:23.054Z,72.75
2023-02-14T14:29:52.745Z,71.51
2023-02-14T14:32:24.909Z,71.72
2023-02-14T14:34:53.409Z,71.36
2023-02-14T14:37:22.404Z,70.82
2023-02-14T14:39:52.233Z,71.35
2023-02-14T14:42:20.054Z,70.86
2023-02-14T14:44:51.288Z,70.26
2023-02-14T14:47:21.753Z,70.71
2023-02-14T14:49:48.888Z,70.31
2023-02-14T14:52:18.893Z,69.71
2023-02-14T14:54:46.136Z,70.28
2023-02-14T14:57:18.305Z,69.84
2023-02-14T14:59:49.902Z,70.37
2023-02-14T15:02:20.312Z,70.74
2023-02-14T15:04:47.422Z,71.06
2023-02-14T15:07:17.932Z,71.91
2023-02-14T15:09:45.332Z,70.39
2023-02-14T15:12:16.849Z,70.51
2023-02-14T15:14:46.615Z,70.45
2023-02-14T15:17:18.702Z,71.32
2023-02-14T15:19:48.054Z,70.88
2023-02-14T15:22:18.212Z,71.52
2023-02-14T15:24:46.179Z,71.66
2023-02-14T15:27:16.363Z,69.86
2023-02-14T15:29:53.031Z,70.33
2023-02-14T15:32:20.425Z,70.68
2023-02-14T15:34:49.185Z,70.61
2023-02-14T15:37:17.523Z,70.02
2023-02-14T15:39:50.865Z,70.41
2023-02-14T15:42:23.341Z,71.06
2023-02-14T15:44:50.642Z,71.48
2023-02-14T15:47:18.055Z,71.69
2023-02-14T15:49:47.429Z,72.09
2023-02-14T15:52:15.260Z,72.78
2023-02-14T15:54:44.175Z,73.62
2023-02-14T15:57:14.392Z,72.73
2023-02-14T15:59:42.486Z,74.16
2023-02-14T16:02:12.823Z,73.87
2023-02-14T16:04:39.987Z,74.11
2023-02-14T16:07:21.920Z,74.01
2023-02-14T16:09:49.658Z,74.17
2023-02-14T16:12:20.377Z,73.94
2023-02-14T16:15:01.048Z,74.65
2023-02-14T16:17:31.217Z,73.17
2023-02-14T16:19:59.164Z,72.91
2023-02-14T16:22:32.679Z,72.28
2023-02-14T16:25:00.370Z,72.28
2023-02-14T16:27:28.521Z,72.09
2023-02-14T16:29:56.000Z,72.37
2023-02-14T16:32:24.623Z,71.87
2023-02-14T16:34:52.013Z,72.16
2023-02-14T16:37:22.634Z,71.86
2023-02-14T16:39:52.089Z,71.88
2023-02-14T16:42:19.978Z,71.86
2023-02-14T16:44:47.825Z,73.21
2023-02-14T16:47:15.896Z,72.66
2023-02-14T16:49:43.348Z,72.30
2023-02-14T16:52:14.162Z,72.23
2023-02-14T16:54:41.275Z,71.87
2023-02-14T16:57:10.917Z,70.95
2023-02-14T16:59:38.376Z,70.64
2023-02-14T17:02:05.920Z,69.71
2023-02-14T17:04:33.340Z,68.90
2023-02-14T17:07:06.289Z,68.64
2023-02-14T17:09:37.812Z,69.80
2023-02-14T17:12:07.534Z,70.64
2023-02-14T17:14:37.830Z,71.36
2023-02-14T17:17:05.524Z,71.64
2023-02-14T17:19:33.915Z,71.66
2023-02-14T17:22:01.467Z,72.41
2023-02-14T17:24:28.692Z,71.88
2023-02-14T17:26:56.076Z,71.53
2023-02-14T17:29:23.421Z,72.85
2023-02-14T17:31:51.440Z,73.07
2023-02-14T17:34:19.094Z,73.63
2023-02-14T17:36:47.099Z,74.34
2023-02-14T17:39:15.185Z,74.20
2023-02-14T17:41:42.297Z,74.61
2023-02-14T17:44:09.663Z,74.71
2023-02-14T17:46:40.104Z,75.11
2023-02-14T17:49:08.918Z,75.89
2023-02-14T17:51:36.487Z,76.05
2023-02-14T17:54:03.764Z,75.91
2023-02-14T17:56:31.526Z,76.08
2023-02-14T17:59:00.554Z,76.45
2023-02-14T18:01:29.190Z,76.97
2023-02-14T18:03:56.694Z,76.28
2023-02-14T18:06:23.846Z,76.33
2023-02-14T18:08:53.651Z,77.00
2023-02-14T18:11:22.066Z,77.28
2023-02-14T18:13:50.472Z,76.99
2023-02-14T18:16:19.220Z,76.56
2023-02-14T18:18:46.771Z,75.92
2023-02-14T18:21:15.899Z,75.54
2023-02-14T18:23:43.821Z,74.95
2023-02-14T18:26:12.365Z,75.32
2023-02-14T18:28:39.912Z,75.23
2023-02-14T18:31:09.168Z,75.27
2023-02-14T18:33:37.000Z,74.75
2023-02-14T18:36:05.579Z,74.76
2023-02-14T18:38:32.771Z,74.69
2023-02-14T18:41:03.395Z,74.03
2023-02-14T18:43:30.828Z,73.32
2023-02-14T18:46:03.447Z,72.77
2023-02-14T18:48:31.252Z,72.18
2023-02-14T18:51:06.159Z,72.63
2023-02-14T18:53:33.230Z,73.25
2023-02-14T18:56:03.480Z,73.93
2023-02-14T18:58:30.574Z,74.46
2023-02-14T19:00:58.542Z,75.40
2023-02-14T19:03:25.726Z,75.42
2023-02-14T19:05:53.944Z,75.68
2023-02-14T19:08:21.008Z,75.62
2023-02-14T19:10:48.108Z,75.51
2023-02-14T19:13:15.136Z,76.05
2023-02-14T19:15:42.091Z,76.00
2023-02-14T19:18:09.548Z,76.44
2023-02-14T19:20:36.651Z,76.61
2023-02-14T19:23:04.096Z,76.91
2023-02-14T19:25:32.990Z,77.48
2023-02-14T19:27:59.955Z,76.93
2023-02-14T19:30:27.163Z,76.83
2023-02-14T19:32:54.265Z,77.66
2023-02-14T19:35:21.408Z,78.20
2023-02-14T19:37:54.244Z,77.94
2023-02-14T19:40:21.931Z,77.87
2023-02-14T19:42:48.908Z,78.08
2023-02-14T19:45:16.045Z,78.07
2023-02-14T19:47:47.368Z,78.10
2023-02-14T19:50:15.254Z,77.89
2023-02-14T19:52:45.077Z,78.05
2023-02-14T19:55:15.634Z,78.06
2023-02-14T19:57:45.830Z,78.61
2023-02-14T20:00:14.561Z,78.52
2023-02-14T20:02:46.867Z,78.21
2023-02-14T20:05:14.932Z,78.36
2023-02-14T20:07:43.716Z,78.13
2023-02-14T20:10:14.065Z,77.96
2023-02-14T20:12:41.112Z,78.88
2023-02-14T20:15:10.821Z,79.29
2023-02-14T20:17:38.662Z,79.85
2023-02-14T20:20:06.470Z,80.11
2023-02-14T20:22:33.595Z,80.95
2023-02-14T20:25:00.735Z,81.53
2023-02-14T20:27:27.893Z,82.40
2023-02-14T20:29:55.739Z,82.63
2023-02-14T20:32:22.804Z,82.55
2023-02-14T20:34:51.430Z,82.21
2023-02-14T20:37:18.705Z,82.46
2023-02-14T20:39:45.759Z,82.38
2023-02-14T20:42:13.077Z,82.72
2023-02-14T20:44:40.067Z,83.32
2023-02-14T20:47:07.276Z,83.59
2023-02-14T20:49:36.089Z,83.25
2023-02-14T20:52:03.275Z,83.04
2023-02-14T20:54:30.985Z,83.25
2023-02-14T20:56:58.575Z,83.06
2023-02-14T20:59:27.613Z,83.09
2023-02-14T21:01:55.936Z,82.78
2023-02-14T21:04:23.126Z,83.20
2023-02-14T21:06:50.267Z,82.82
2023-02-14T21:09:19.029Z,82.87
2023-02-14T21:11:46.186Z,82.65
2023-02-14T21:14:13.681Z,82.52
2023-02-14T21:16:40.788Z,82.48
2023-02-14T21:19:07.939Z,82.02
2023-02-14T21:21:37.527Z,82.19
2023-02-14T21:24:06.691Z,82.21
2023-02-14T21:26:34.166Z,82.57
2023-02-14T21:29:01.890Z,82.54
2023-02-14T21:31:28.991Z,82.42
2023-02-14T21:33:57.351Z,82.50
2023-02-14T21:36:25.658Z,82.22
2023-02-14T21:38:54.825Z,82.71
2023-02-14T21:41:23.151Z,82.78
2023-02-14T21:43:52.734Z,82.74
2023-02-14T21:46:27.342Z,82.04
2023-02-14T21:48:58.454Z,82.20
2023-02-14T21:51:25.531Z,82.16
2023-02-14T21:53:53.046Z,82.06
2023-02-14T21:56:20.895Z,82.29
2023-02-14T21:58:48.878Z,82.38
2023-02-14T22:01:17.057Z,82.59
2023-02-14T22:03:44.253Z,82.42
2023-02-14T22:06:13.519Z,82.44
2023-02-14T22:08:41.050Z,82.39
2023-02-14T22:11:09.134Z,81.90
2023-02-14T22:13:36.252Z,81.81
2023-02-14T22:16:04.268Z,82.12
2023-02-14T22:18:32.036Z,82.81
2023-02-14T22:21:01.824Z,82.31
2023-02-14T22:23:31.127Z,82.38
2023-02-14T22:26:07.782Z,81.97
2023-02-14T22:28:34.728Z,81.92
2023-02-14T22:31:02.691Z,82.65
2023-02-14T22:33:30.155Z,81.84
2023-02-14T22:35:57.710Z,81.34
2023-02-14T22:38:24.674Z,80.84
2023-02-14T22:40:51.908Z,81.23
2023-02-14T22:43:19.294Z,80.94
2023-02-14T22:45:46.310Z,80.47
2023-02-14T22:48:13.292Z,80.73
2023-02-14T22:50:40.374Z,80.23
2023-02-14T22:53:07.453Z,80.40
2023-02-14T22:55:34.471Z,79.79
2023-02-14T22:58:01.677Z,79.96
2023-02-14T23:00:28.670Z,79.43
2023-02-14T23:02:55.951Z,79.23
2023-02-14T23:05:23.008Z,78.33
2023-02-14T23:07:50.012Z,77.74
2023-02-14T23:10:17.095Z,77.37
2023-02-14T23:12:47.316Z,76.74
2023-02-14T23:15:17.498Z,76.44
2023-02-14T23:17:47.771Z,76.97
2023-02-14T23:20:17.995Z,76.98
2023-02-14T23:22:45.041Z,76.48
2023-02-14T23:25:13.069Z,76.42
2023-02-14T23:27:40.725Z,75.98
2023-02-14T23:30:08.765Z,75.74
2023-02-14T23:32:36.164Z,76.23
2023-02-14T23:35:03.147Z,76.49
2023-02-14T23:37:30.157Z,76.47
2023-02-14T23:39:57.200Z,76.56
2023-02-14T23:42:24.189Z,76.60
2023-02-14T23:44:51.451Z,76.46
2023-02-14T23:47:18.459Z,76.37
2023-02-14T23:49:46.418Z,76.71
2023-02-14T23:52:13.715Z,76.54
2023-02-14T23:54:40.874Z,76.43
2023-02-14T23:57:08.321Z,76.73
2023-02-14T23:59:35.338Z,76.88
